EHBKEHWO

Guest
Details From EHBK - Maastricht
To EHWO - Woensdrecht
Flight Number -
Tags generated
Created
Modified
Stats Distance 63 nm / 116 km
Max Altitude 6,200 ft / 1,890 m
Waypoints 3
Social Downloads 2
Likes 0
Share VATSIM

Download

Looking for another format? Having issues loading an existing format? Contact us
Advertisement - Login to hide

Notes

Basic altitude profile: - Ascent Rate: 2500ft/min - Ascent Speed: 250kts - Cruise Altitude: 35000ft - Cruise Speed: 420kts - Descent Rate: 1500ft/min - Descent Speed: 250kts Options: - Use NATs: yes - Use PACOTS: yes - Use low airways: yes - Use high airways: yes

Route

EHBK ELSIK EHWO

ID Type Via Altitude Latitude Longitude Leg Dist Tot Dist Heading (true) Name
O EHBK APT - 0 ft / 0 m 50.91131˚ 5.76964˚ - 0 nm - Maastricht
ELSIK FIX - 6,200 ft / 1,890 m 51.19502˚ 4.99861˚ 33 nm 33 nm 301° / 300° -
O EHWO APT - 0 ft / 0 m 51.44900˚ 4.34208˚ 28 nm 62 nm 302° / 302° Woensdrecht

Altitude Profile

Advertisement - Login to hide

EHBK

Details ICAO EHBK (MST)
Name Maastricht
Region Netherlands
Timezone Europe/Amsterdam (UTC+2.0)
Stats Elevation 375 ft / 114 m (AMSL)
Location 50.911305° 5.769639°
Runways 1
Magnetic Variation 1.576° E

METAR

EHBK 250925Z AUTO VRB02KT 9999 NCD 23/14 Q1018 NOSIG

Decode

TAF

TAF EHBK 250516Z 2506/2612 VRB03KT CAVOK PROB30 TEMPO 2513/2517 4000 SHRA TSRA SCT060CB PROB30 2601/2604 5000 BR

Decode

Departure Runways

ID Width Length Bearing (true) Bearing (mag) Surface Threshold Offset Overrun Length
03 148 ft / 45 m 8,200 ft / 2,499 m 32.55° 30.97° Asphalt 820 ft / 250 m 0 ft / 0 m
21 148 ft / 45 m 8,200 ft / 2,499 m 212.56° 210.98° Asphalt 820 ft / 250 m 0 ft / 0 m

EHWO

Details ICAO EHWO (WOE)
Name Woensdrecht
Region Netherlands
Timezone Europe/Amsterdam (UTC+2.0)
Stats Elevation 63 ft / 19 m (AMSL)
Location 51.449000° 4.342084°
Runways 1
Magnetic Variation 1.107° E

METAR

EHWO 250944Z AUTO VRB02KT 9999 BKN023 BKN240 22/17 Q1017 WHT VRB03KT 9999 SCT025

Decode

TAF

TAF EHWO 250426Z 2505/2517 10003KT 0300 FG NSC BECMG 2505/2507 9000 NSW FEW005 PROB30 TEMPO 2514/2517 VRB15G25KT 2000 +SHRA TSRAGR SCT012 BKN035CB

Decode

Destination Runways

ID Width Length Bearing (true) Bearing (mag) Surface Threshold Offset Overrun Length
07 148 ft / 45 m 7,974 ft / 2,430 m 69.45° 68.34° Asphalt 0 ft / 0 m 82 ft / 25 m
25 148 ft / 45 m 7,974 ft / 2,430 m 249.47° 248.36° Asphalt 0 ft / 0 m 82 ft / 25 m

Approach Navaids

Runway Type Ident Frequency Range Bearing (true) Bearing (mag) Slope Elevation
07 Localiser WDZ 108.15 MHz 18 nm / 33 km 69.06° 67.96° - 63 ft / 19 m (AMSL)
07 Glidescope WDZ 108.15 MHz 15 nm / 28 km 69.06° 67.96° 3.00° 63 ft / 19 m (AMSL)
25 Localiser WDO 108.15 MHz 18 nm / 33 km 249.53° 248.42° - 63 ft / 19 m (AMSL)
25 Glidescope WDO 108.15 MHz 15 nm / 28 km 249.53° 248.42° 3.00° 63 ft / 19 m (AMSL)

Popular Alternatives